Terminal Aerodrome Forecast
Issued by NWS Mt. Holly, NJ

Home | Current Version | Previous Version | Text Only | Print | Product List | Glossary On
Versions: 1 2 3 4 5 6 7 8 9 10 11 12 13 14 15 16 17 18 19 20 21 22 23 24 25 26 27 28 29 30 31 32 33 34 35 36
000
FTUS41 KPHI 261100
TAFPHL
TAF
KPHL 261120Z 2612/2718 06010G19KT P6SM -SN OVC025
      TEMPO 2613/2616 2SM -SN OVC012
     FM261600 05014G24KT 2SM -SN OVC012
     FM262100 04016G26KT 1SM -SN OVC006
     FM270000 02020KT 1/2SM SN FG OVC005
     FM271200 35020G28KT 4SM -SN BLSN OVC010=

USA.gov is the U.S. government's official web portal to all federal, state and local government web resources and services.